Time;durP1;ratioP1;P1;durP2;ratioP2;P2;SDS_P1;SDS_P2;PMS_P1;PMS_P2;Temp;Humidity;BMP_temperature;BMP_pressure;BME280_temperature;BME280_humidity;BME280_pressure;Samples;Min_cycle;Max_cycle;Signal;HPM_P1;HPM_P2
2021/08/18 00:01:17;;;;;;;3.97;1.73;;;21.20;70.20;;;;;;5005665;28;20133;-48
2021/08/18 00:03:43;;;;;;;2.78;1.60;;;21.20;70.30;;;;;;5010985;28;20125;-49
2021/08/18 00:06:10;;;;;;;4.18;1.70;;;21.20;69.80;;;;;;5011945;28;20138;-47
2021/08/18 00:08:36;;;;;;;3.00;1.52;;;21.20;70.60;;;;;;5030257;28;20037;-47
2021/08/18 00:11:02;;;;;;;4.70;1.58;;;21.10;70.70;;;;;;5034586;28;20045;-49
2021/08/18 00:13:28;;;;;;;3.08;1.63;;;21.10;70.90;;;;;;5015678;28;20041;-47
2021/08/18 00:15:56;;;;;;;6.32;1.80;;;21.10;70.90;;;;;;5033279;28;20511;-47
2021/08/18 00:18:22;;;;;;;4.15;1.80;;;21.10;70.80;;;;;;5007220;28;20498;-47
2021/08/18 00:20:48;;;;;;;4.72;1.80;;;20.80;70.80;;;;;;5010425;28;20034;-48
2021/08/18 00:23:14;;;;;;;5.57;1.90;;;20.80;71.10;;;;;;5005453;28;20046;-48
2021/08/18 00:25:40;;;;;;;3.65;2.30;;;20.60;71.10;;;;;;4965449;28;20030;-47
2021/08/18 00:28:06;;;;;;;4.40;1.42;;;20.60;71.20;;;;;;5009338;28;20403;-47
2021/08/18 00:30:32;;;;;;;4.18;2.10;;;20.70;71.50;;;;;;5009008;28;20104;-48
2021/08/18 00:32:58;;;;;;;5.07;1.77;;;20.70;71.00;;;;;;5009916;28;20466;-48
2021/08/18 00:35:24;;;;;;;6.22;2.10;;;20.80;70.80;;;;;;4979887;28;20124;-49
2021/08/18 00:37:50;;;;;;;3.70;1.90;;;20.90;70.80;;;;;;5012562;28;20466;-48
2021/08/18 00:40:17;;;;;;;4.57;1.35;;;20.80;70.30;;;;;;5004891;28;20057;-48
2021/08/18 00:42:47;;;;;;;5.53;1.35;;;20.90;70.70;;;;;;4975855;28;20488;-48
2021/08/18 00:45:15;;;;;;;5.28;1.90;;;20.80;70.60;;;;;;4980224;28;20187;-47
2021/08/18 00:47:45;;;;;;;3.17;1.60;;;20.80;70.90;;;;;;4994424;28;20041;-47
2021/08/18 00:50:14;;;;;;;3.40;1.65;;;20.70;70.90;;;;;;5030287;28;20065;-47
2021/08/18 00:52:40;;;;;;;5.15;1.52;;;20.60;71.20;;;;;;5034227;28;20132;-48
2021/08/18 00:55:11;;;;;;;4.63;1.67;;;20.60;71.30;;;;;;5029788;28;20132;-48
2021/08/18 00:57:38;;;;;;;3.67;1.60;;;20.70;71.30;;;;;;5034268;28;20029;-49
2021/08/18 01:00:07;;;;;;;4.20;1.60;;;20.60;71.00;;;;;;5033712;28;20060;-47
2021/08/18 01:02:36;;;;;;;3.67;1.63;;;20.60;70.90;;;;;;4979176;28;20599;-49
2021/08/18 01:05:10;;;;;;;4.18;1.73;;;20.40;71.60;;;;;;5033844;28;20526;-47
2021/08/18 01:07:36;;;;;;;3.83;1.70;;;20.40;72.20;;;;;;5012275;28;20092;-48
2021/08/18 01:10:11;;;;;;;2.90;1.60;;;20.40;72.30;;;;;;5032688;28;20063;-49
2021/08/18 01:12:38;;;;;;;3.33;1.48;;;20.40;72.10;;;;;;4990691;28;20045;-48
2021/08/18 01:15:09;;;;;;;4.63;1.50;;;20.40;72.30;;;;;;5033507;28;20080;-49
2021/08/18 01:17:43;;;;;;;2.80;1.35;;;20.50;72.10;;;;;;5034323;28;20030;-50
2021/08/18 01:20:14;;;;;;;3.88;1.50;;;20.40;72.10;;;;;;5033811;28;20075;-50
2021/08/18 01:22:40;;;;;;;3.25;1.50;;;20.40;72.20;;;;;;5033845;28;20083;-49
2021/08/18 01:25:07;;;;;;;2.38;1.50;;;20.40;72.50;;;;;;5033338;28;20033;-50
2021/08/18 01:27:37;;;;;;;3.40;1.52;;;20.30;72.70;;;;;;5024126;28;20037;-49
2021/08/18 01:30:04;;;;;;;4.75;1.90;;;20.30;73.00;;;;;;5034159;28;20032;-49
2021/08/18 01:33:00;;;;;;;4.10;1.38;;;20.40;72.50;;;;;;4984299;28;20069;-48
2021/08/18 01:35:32;;;;;;;5.68;1.52;;;20.50;72.60;;;;;;5021042;28;20068;-48
2021/08/18 01:38:00;;;;;;;3.88;1.33;;;20.40;72.40;;;;;;5032988;28;20037;-50
2021/08/18 01:40:26;;;;;;;3.05;1.60;;;20.40;72.60;;;;;;5031432;28;20025;-49
2021/08/18 01:42:52;;;;;;;3.38;1.52;;;20.40;72.60;;;;;;5033113;28;20029;-49
2021/08/18 01:45:27;;;;;;;4.30;1.58;;;20.50;72.60;;;;;;5032302;28;20037;-48
2021/08/18 01:47:54;;;;;;;1.70;1.08;;;20.60;72.20;;;;;;5031302;28;20022;-49
2021/08/18 01:50:21;;;;;;;3.97;1.42;;;20.70;72.10;;;;;;5032889;28;20026;-48
2021/08/18 01:52:54;;;;;;;5.85;1.58;;;20.70;72.10;;;;;;5032561;28;20053;-48
2021/08/18 01:55:21;;;;;;;4.38;2.10;;;20.70;72.10;;;;;;5011892;28;20054;-49
2021/08/18 01:57:47;;;;;;;3.33;1.50;;;20.70;72.20;;;;;;5032574;28;20034;-49
2021/08/18 02:00:15;;;;;;;7.00;2.05;;;20.70;72.40;;;;;;5032820;28;20389;-49
2021/08/18 02:02:41;;;;;;;2.13;1.20;;;20.70;72.60;;;;;;5032339;28;20117;-47
2021/08/18 02:05:08;;;;;;;4.18;1.42;;;20.70;72.60;;;;;;5032657;28;20164;-48
2021/08/18 02:07:35;;;;;;;3.97;1.42;;;20.60;72.60;;;;;;5008198;28;20030;-48
2021/08/18 02:10:01;;;;;;;3.25;2.03;;;20.60;72.60;;;;;;5026581;28;20041;-49
2021/08/18 02:12:26;;;;;;;3.95;1.40;;;20.70;72.50;;;;;;5012531;28;20128;-48
2021/08/18 02:14:52;;;;;;;1.90;1.30;;;20.70;72.40;;;;;;5032296;28;20501;-47
2021/08/18 02:17:18;;;;;;;2.33;1.50;;;20.70;72.30;;;;;;5033402;28;20018;-49
2021/08/18 02:19:43;;;;;;;5.10;1.40;;;20.70;72.40;;;;;;5032786;28;20029;-50
2021/08/18 02:22:09;;;;;;;2.83;1.45;;;20.60;72.20;;;;;;5030555;28;20041;-48
2021/08/18 02:24:35;;;;;;;3.50;1.52;;;20.60;72.40;;;;;;5033029;28;20461;-48
2021/08/18 02:27:00;;;;;;;13.55;2.60;;;20.60;72.30;;;;;;5032392;28;20481;-49
2021/08/18 02:29:26;;;;;;;2.90;1.17;;;20.60;72.50;;;;;;5032684;28;20029;-48
2021/08/18 02:31:52;;;;;;;3.00;1.63;;;20.50;72.30;;;;;;5030831;28;20038;-49
2021/08/18 02:34:19;;;;;;;2.88;1.30;;;20.60;72.40;;;;;;5010203;28;20058;-49
2021/08/18 02:36:45;;;;;;;3.00;1.23;;;20.60;72.20;;;;;;5029263;28;20468;-48
2021/08/18 02:39:11;;;;;;;5.65;1.42;;;20.40;72.50;;;;;;5032302;28;20026;-50
2021/08/18 02:41:37;;;;;;;3.17;1.50;;;20.40;73.00;;;;;;5031619;28;20072;-50
2021/08/18 02:44:03;;;;;;;2.47;1.30;;;20.20;73.10;;;;;;5032237;28;20033;-48
2021/08/18 02:46:29;;;;;;;3.28;1.20;;;20.20;73.20;;;;;;5032443;28;20037;-48
2021/08/18 02:48:54;;;;;;;3.25;1.20;;;20.20;73.40;;;;;;5032526;28;20079;-48
2021/08/18 02:51:20;;;;;;;3.00;1.92;;;20.10;73.80;;;;;;5031564;28;20401;-48
2021/08/18 02:53:46;;;;;;;2.58;1.52;;;20.20;73.80;;;;;;5032749;28;20033;-48
2021/08/18 02:56:12;;;;;;;3.70;1.58;;;20.20;73.60;;;;;;5032696;28;20029;-48
2021/08/18 02:58:37;;;;;;;2.25;1.42;;;20.30;73.90;;;;;;5032482;28;20045;-49
2021/08/18 03:01:03;;;;;;;4.00;1.45;;;20.30;73.70;;;;;;5028228;28;20041;-48
2021/08/18 03:03:29;;;;;;;3.55;1.42;;;20.20;73.60;;;;;;5032328;28;20034;-49
2021/08/18 03:05:55;;;;;;;3.58;1.48;;;20.30;73.60;;;;;;5032638;28;20456;-48
2021/08/18 03:08:20;;;;;;;6.30;1.75;;;20.30;73.40;;;;;;5010047;28;20048;-48
2021/08/18 03:10:46;;;;;;;1.98;1.13;;;20.20;73.80;;;;;;5032161;28;20029;-48
2021/08/18 03:13:12;;;;;;;3.78;1.58;;;20.20;74.00;;;;;;4967056;28;20040;-47
2021/08/18 03:15:38;;;;;;;2.28;1.20;;;20.20;74.10;;;;;;5032774;28;20385;-49
2021/08/18 03:18:03;;;;;;;3.30;1.50;;;20.30;74.20;;;;;;5032026;28;20033;-48
2021/08/18 03:20:29;;;;;;;8.43;2.00;;;20.20;74.10;;;;;;5004099;28;20107;-48
2021/08/18 03:22:55;;;;;;;1.88;1.30;;;20.20;74.50;;;;;;5029727;28;20048;-47
2021/08/18 03:25:21;;;;;;;3.13;1.55;;;20.20;74.90;;;;;;5035827;28;20021;-50
2021/08/18 03:27:47;;;;;;;5.63;1.75;;;;;;;;;;5018245;28;20048;-48
2021/08/18 03:30:13;;;;;;;2.10;1.35;;;20.10;74.30;;;;;;5035698;28;20480;-50
2021/08/18 03:32:39;;;;;;;7.40;1.88;;;19.90;75.10;;;;;;5035843;28;20516;-48
2021/08/18 03:35:06;;;;;;;3.35;1.77;;;19.80;75.60;;;;;;5036123;28;20449;-48
2021/08/18 03:37:32;;;;;;;5.70;2.20;;;19.70;75.70;;;;;;4983387;28;20042;-49
2021/08/18 03:39:57;;;;;;;5.40;1.83;;;19.70;75.50;;;;;;5035626;28;20115;-50
2021/08/18 03:42:23;;;;;;;4.53;2.03;;;19.70;75.40;;;;;;5017863;28;20090;-49
2021/08/18 03:44:49;;;;;;;2.75;1.70;;;19.70;76.60;;;;;;5016509;28;20041;-50
2021/08/18 03:47:15;;;;;;;5.10;1.85;;;;;;;;;;5035419;28;20495;-48
2021/08/18 03:49:41;;;;;;;4.45;1.92;;;19.60;75.50;;;;;;5035488;28;20029;-47
2021/08/18 03:52:07;;;;;;;4.82;1.90;;;19.50;76.60;;;;;;5035720;28;20045;-49
2021/08/18 03:54:34;;;;;;;6.75;2.47;;;19.60;76.30;;;;;;5016932;28;20507;-49
2021/08/18 03:57:00;;;;;;;4.32;1.60;;;19.70;76.30;;;;;;5031356;28;20493;-49
2021/08/18 03:59:25;;;;;;;5.40;1.48;;;19.80;75.80;;;;;;5035374;28;20064;-49
2021/08/18 04:01:51;;;;;;;4.80;1.90;;;19.80;75.30;;;;;;5035070;28;20044;-49
2021/08/18 04:04:17;;;;;;;3.28;1.60;;;19.80;75.50;;;;;;5035361;28;20120;-48
2021/08/18 04:06:43;;;;;;;2.28;1.27;;;19.90;75.30;;;;;;5015082;28;20029;-48
2021/08/18 04:09:09;;;;;;;3.85;1.63;;;19.90;75.10;;;;;;5035338;28;20029;-49
2021/08/18 04:11:34;;;;;;;7.60;1.52;;;19.90;75.40;;;;;;5033401;28;20026;-49
2021/08/18 04:14:00;;;;;;;4.13;1.73;;;20.00;75.40;;;;;;5028306;28;20068;-49
2021/08/18 04:16:26;;;;;;;4.07;1.58;;;20.10;74.90;;;;;;5035929;28;20034;-47
2021/08/18 04:18:52;;;;;;;5.53;1.63;;;20.10;75.10;;;;;;5034801;28;20017;-49
2021/08/18 04:21:18;;;;;;;4.28;1.90;;;20.00;74.70;;;;;;5034853;28;20503;-50
2021/08/18 04:23:43;;;;;;;4.88;1.38;;;19.90;74.90;;;;;;5014998;28;20531;-47
2021/08/18 04:26:09;;;;;;;4.65;1.50;;;19.90;75.80;;;;;;5034657;28;20033;-49
2021/08/18 04:28:35;;;;;;;6.20;1.83;;;20.00;75.40;;;;;;5016420;28;20049;-48
2021/08/18 04:31:01;;;;;;;3.78;2.00;;;19.90;75.80;;;;;;5010759;28;20485;-49
2021/08/18 04:33:27;;;;;;;3.58;1.77;;;19.90;75.80;;;;;;4978672;28;20045;-49
2021/08/18 04:35:53;;;;;;;6.95;1.65;;;20.00;75.80;;;;;;5034779;28;20416;-48
2021/08/18 04:38:18;;;;;;;3.72;1.58;;;20.00;75.60;;;;;;5016098;28;20041;-49
2021/08/18 04:40:44;;;;;;;3.55;1.67;;;20.10;75.50;;;;;;5034583;28;20053;-49
2021/08/18 04:43:14;;;;;;;5.85;1.70;;;20.10;75.60;;;;;;5035029;28;20508;-49
2021/08/18 04:45:41;;;;;;;2.63;1.50;;;20.20;75.40;;;;;;5033500;28;20101;-50
2021/08/18 04:48:06;;;;;;;3.45;1.48;;;20.20;75.30;;;;;;5019477;28;20044;-49
2021/08/18 04:50:33;;;;;;;2.72;1.60;;;20.30;75.30;;;;;;5028177;28;20033;-49
2021/08/18 04:52:58;;;;;;;10.02;3.17;;;20.20;76.10;;;;;;5033495;28;20087;-48
2021/08/18 04:55:24;;;;;;;4.82;1.80;;;20.30;75.90;;;;;;5015887;28;20662;-49
2021/08/18 04:57:50;;;;;;;2.92;1.50;;;20.20;75.80;;;;;;5031847;28;20038;-47
2021/08/18 05:00:16;;;;;;;6.57;1.90;;;20.10;75.90;;;;;;5033966;28;20026;-47
2021/08/18 05:02:44;;;;;;;2.97;1.67;;;20.10;76.20;;;;;;5010771;28;20065;-48
2021/08/18 05:05:10;;;;;;;4.57;2.05;;;20.10;76.30;;;;;;5008280;28;20101;-49
2021/08/18 05:07:36;;;;;;;4.38;1.80;;;20.10;76.60;;;;;;4976874;28;20034;-49
2021/08/18 05:10:02;;;;;;;5.10;1.67;;;20.20;76.20;;;;;;5033752;28;20056;-49
2021/08/18 05:12:28;;;;;;;4.90;1.70;;;20.20;76.00;;;;;;5015029;28;20045;-49
2021/08/18 05:14:54;;;;;;;3.53;1.65;;;20.30;76.00;;;;;;5031620;28;20026;-50
2021/08/18 05:17:19;;;;;;;5.20;1.60;;;20.40;75.50;;;;;;5030821;28;20120;-50
2021/08/18 05:19:45;;;;;;;3.00;1.50;;;20.40;75.80;;;;;;5027560;28;20039;-48
2021/08/18 05:22:11;;;;;;;3.83;1.65;;;20.30;76.60;;;;;;5033383;28;20049;-48
2021/08/18 05:24:37;;;;;;;3.85;1.80;;;20.50;76.70;;;;;;4982759;28;20547;-48
2021/08/18 05:27:03;;;;;;;2.40;1.58;;;20.70;76.70;;;;;;5015273;28;20140;-47
2021/08/18 05:29:28;;;;;;;4.85;1.73;;;20.50;75.90;;;;;;5014676;28;20111;-49
2021/08/18 05:31:54;;;;;;;3.70;1.90;;;20.50;75.70;;;;;;5033018;28;20461;-48
2021/08/18 05:34:20;;;;;;;10.05;1.73;;;20.30;75.30;;;;;;5033488;28;20036;-48
2021/08/18 05:36:46;;;;;;;5.03;1.90;;;20.20;75.70;;;;;;5033925;28;20079;-48
2021/08/18 05:39:11;;;;;;;3.97;1.83;;;20.30;75.60;;;;;;5032947;28;20488;-48
2021/08/18 05:41:37;;;;;;;3.85;1.73;;;20.30;75.60;;;;;;5032895;28;20042;-49
2021/08/18 05:44:03;;;;;;;3.33;1.85;;;20.40;75.60;;;;;;5033801;28;20022;-49
2021/08/18 05:46:29;;;;;;;3.83;1.45;;;20.30;75.50;;;;;;5010986;28;20038;-50
2021/08/18 05:48:55;;;;;;;8.50;2.17;;;20.40;75.80;;;;;;5011592;28;20046;-48
2021/08/18 05:51:20;;;;;;;3.30;1.80;;;20.60;75.70;;;;;;5033468;28;20084;-49
2021/08/18 05:53:50;;;;;;;7.70;1.70;;;20.60;74.60;;;;;;5008491;28;20097;-49
2021/08/18 05:56:17;;;;;;;4.68;1.80;;;20.60;75.00;;;;;;5031060;28;20091;-49
2021/08/18 05:58:43;;;;;;;5.00;1.80;;;20.70;74.80;;;;;;5033416;28;20104;-49
2021/08/18 06:01:08;;;;;;;5.85;1.80;;;20.90;74.10;;;;;;4981848;28;20477;-50
2021/08/18 06:03:35;;;;;;;4.28;1.60;;;20.90;74.30;;;;;;5032666;28;20468;-49
2021/08/18 06:06:01;;;;;;;2.58;1.55;;;21.00;74.00;;;;;;5033680;28;20025;-49
2021/08/18 06:08:27;;;;;;;3.95;1.50;;;21.10;73.20;;;;;;5030760;28;20037;-50
2021/08/18 06:10:53;;;;;;;2.85;1.77;;;21.00;73.40;;;;;;5032161;28;20032;-50
2021/08/18 06:13:18;;;;;;;5.55;1.80;;;21.10;74.10;;;;;;5012895;28;20509;-50
2021/08/18 06:15:44;;;;;;;3.60;1.67;;;20.90;73.50;;;;;;5032262;28;20060;-50
2021/08/18 06:18:10;;;;;;;4.82;1.90;;;20.80;73.60;;;;;;5032694;28;20025;-48
2021/08/18 06:20:36;;;;;;;6.85;1.70;;;21.00;74.00;;;;;;5010594;28;20033;-49
2021/08/18 06:23:02;;;;;;;4.10;1.42;;;21.20;73.50;;;;;;5033055;28;20049;-49
2021/08/18 06:25:28;;;;;;;8.20;1.85;;;21.20;73.20;;;;;;5032318;28;20079;-51
2021/08/18 06:27:55;;;;;;;4.72;1.77;;;21.40;72.50;;;;;;5025430;28;20025;-48
2021/08/18 06:30:21;;;;;;;4.90;1.92;;;21.60;72.50;;;;;;5027320;28;20041;-49
2021/08/18 06:32:47;;;;;;;4.05;1.85;;;21.60;72.30;;;;;;5029638;28;20040;-51
2021/08/18 06:35:13;;;;;;;7.40;2.35;;;21.50;72.00;;;;;;5013692;28;20037;-50
2021/08/18 06:37:39;;;;;;;3.95;2.17;;;21.60;72.80;;;;;;5032358;28;20034;-48
2021/08/18 06:40:09;;;;;;;8.43;2.00;;;21.70;72.00;;;;;;5031046;28;20025;-50
2021/08/18 06:42:39;;;;;;;3.70;1.77;;;21.60;71.60;;;;;;5012569;28;20049;-51
2021/08/18 06:45:05;;;;;;;3.08;1.67;;;22.00;71.80;;;;;;5032577;28;20069;-50
2021/08/18 06:47:31;;;;;;;3.30;1.67;;;21.80;71.20;;;;;;4982646;28;20053;-48
2021/08/18 06:49:57;;;;;;;5.57;1.90;;;22.00;70.80;;;;;;5021415;28;20496;-49
2021/08/18 06:52:24;;;;;;;2.35;1.50;;;22.10;70.50;;;;;;5031404;28;20057;-48
2021/08/18 06:54:51;;;;;;;4.50;1.70;;;22.00;70.30;;;;;;5031243;28;20040;-50
2021/08/18 06:57:16;;;;;;;5.05;1.98;;;22.30;69.50;;;;;;5032478;28;20083;-50
2021/08/18 06:59:42;;;;;;;4.10;1.90;;;22.40;70.30;;;;;;5009607;28;20034;-48
2021/08/18 07:02:08;;;;;;;3.30;2.15;;;22.50;70.10;;;;;;4997641;28;20077;-49
2021/08/18 07:04:34;;;;;;;5.50;2.10;;;23.00;69.50;;;;;;5035949;28;20473;-51
2021/08/18 07:06:59;;;;;;;4.60;1.55;;;23.10;68.40;;;;;;5014888;28;20042;-51
2021/08/18 07:09:25;;;;;;;5.78;1.70;;;23.30;67.70;;;;;;5035561;28;20071;-47
2021/08/18 07:11:53;;;;;;;3.22;1.70;;;23.50;67.50;;;;;;5016624;28;20396;-46
2021/08/18 07:14:19;;;;;;;3.53;1.88;;;23.40;67.70;;;;;;5035668;28;20465;-47
2021/08/18 07:16:44;;;;;;;3.83;1.92;;;23.20;67.40;;;;;;5012071;28;20121;-47
2021/08/18 07:19:10;;;;;;;5.35;1.60;;;23.10;66.90;;;;;;5036217;28;20051;-46
2021/08/18 07:21:36;;;;;;;5.75;2.28;;;23.40;67.20;;;;;;5010379;28;20045;-48
2021/08/18 07:24:02;;;;;;;3.78;2.20;;;23.40;67.70;;;;;;5000894;28;20041;-47
2021/08/18 07:26:28;;;;;;;5.20;4.20;;;23.50;67.40;;;;;;5011952;28;20207;-46
2021/08/18 07:28:55;;;;;;;5.13;1.63;;;23.50;67.40;;;;;;5016951;28;20124;-46
2021/08/18 07:31:20;;;;;;;4.75;1.48;;;23.20;66.30;;;;;;5035306;28;20032;-48
2021/08/18 07:33:46;;;;;;;4.07;1.60;;;23.10;67.10;;;;;;5016911;28;20037;-47
2021/08/18 07:36:12;;;;;;;5.13;2.00;;;23.10;67.10;;;;;;5016858;28;20037;-47
2021/08/18 07:38:38;;;;;;;3.58;1.90;;;23.10;66.10;;;;;;5000616;28;20168;-48
2021/08/18 07:41:04;;;;;;;3.40;1.45;;;23.40;67.20;;;;;;5035688;28;20093;-48
2021/08/18 07:43:30;;;;;;;3.13;1.45;;;23.40;66.80;;;;;;5034069;28;20045;-49
2021/08/18 07:45:56;;;;;;;8.65;1.92;;;23.60;65.30;;;;;;5035285;28;20099;-49
2021/08/18 07:48:22;;;;;;;5.28;1.98;;;24.10;65.70;;;;;;5036056;28;20017;-47
2021/08/18 07:50:48;;;;;;;2.28;1.55;;;24.60;65.60;;;;;;5033848;28;20048;-47
2021/08/18 07:53:14;;;;;;;14.40;2.17;;;24.70;63.00;;;;;;5035372;28;20030;-47
2021/08/18 07:55:39;;;;;;;4.90;2.15;;;24.60;61.70;;;;;;5035708;28;20100;-49
2021/08/18 07:58:05;;;;;;;3.63;1.77;;;24.90;61.70;;;;;;5035441;28;20511;-46
2021/08/18 08:00:33;;;;;;;4.55;1.83;;;24.80;61.40;;;;;;5016843;28;20045;-48
2021/08/18 08:02:58;;;;;;;4.70;1.77;;;24.90;62.30;;;;;;5011696;28;20056;-48
2021/08/18 08:05:24;;;;;;;5.18;2.22;;;24.60;59.50;;;;;;5012695;28;20034;-49
2021/08/18 08:07:50;;;;;;;8.70;2.88;;;24.50;59.90;;;;;;4976643;28;20046;-49
2021/08/18 08:10:16;;;;;;;5.50;1.73;;;24.20;60.90;;;;;;5034144;28;20497;-47
2021/08/18 08:12:42;;;;;;;3.15;1.45;;;23.90;60.50;;;;;;5034976;28;20057;-46
2021/08/18 08:15:09;;;;;;;2.63;1.50;;;23.90;60.90;;;;;;5035599;28;20029;-48
2021/08/18 08:17:35;;;;;;;4.70;1.92;;;24.00;60.50;;;;;;4967616;28;20065;-47
2021/08/18 08:20:01;;;;;;;4.93;1.90;;;24.10;59.90;;;;;;5032836;28;20099;-49
2021/08/18 08:22:27;;;;;;;4.13;1.80;;;24.10;60.10;;;;;;5032976;28;20049;-48
2021/08/18 08:24:53;;;;;;;3.03;1.48;;;24.00;59.50;;;;;;5035206;28;20083;-48
2021/08/18 08:27:19;;;;;;;2.83;1.52;;;23.90;59.00;;;;;;5032960;28;20025;-47
2021/08/18 08:29:45;;;;;;;2.05;1.42;;;24.30;58.60;;;;;;5016084;28;20041;-48
2021/08/18 08:32:11;;;;;;;3.78;2.20;;;24.30;58.00;;;;;;5015379;28;20063;-48
2021/08/18 08:34:37;;;;;;;3.67;1.70;;;24.80;58.60;;;;;;5034403;28;20108;-47
2021/08/18 08:37:03;;;;;;;2.47;1.30;;;25.30;58.40;;;;;;5034403;28;20037;-48
2021/08/18 08:39:29;;;;;;;1.80;1.25;;;24.90;57.00;;;;;;4984079;28;20473;-47
2021/08/18 08:41:55;;;;;;;2.97;1.48;;;24.80;56.20;;;;;;5031715;28;20596;-47
2021/08/18 08:44:23;;;;;;;7.47;2.17;;;25.10;57.20;;;;;;5031616;28;20128;-48
2021/08/18 08:46:53;;;;;;;3.65;2.67;;;25.40;58.40;;;;;;5034334;28;20061;-48
2021/08/18 08:49:21;;;;;;;4.05;1.52;;;25.60;57.40;;;;;;5034420;28;20037;-48
2021/08/18 08:51:52;;;;;;;3.83;1.40;;;25.70;56.60;;;;;;5034110;28;20075;-46
2021/08/18 08:54:18;;;;;;;4.55;2.20;;;25.40;56.70;;;;;;5027771;28;20034;-47
2021/08/18 08:56:45;;;;;;;4.65;1.63;;;25.40;55.90;;;;;;5031394;28;20087;-48
2021/08/18 08:59:11;;;;;;;2.30;1.40;;;25.60;56.90;;;;;;5034072;28;20108;-48
2021/08/18 09:02:00;;;;;;;7.18;1.83;;;25.60;57.50;;;;;;5029636;28;20033;-48
2021/08/18 09:04:48;;;;;;;3.25;1.77;;;26.20;57.60;;;;;;5034201;28;20488;-47
2021/08/18 09:07:23;;;;;;;1.58;1.15;;;26.00;57.00;;;;;;5025312;28;20079;-47
2021/08/18 09:09:54;;;;;;;3.08;2.10;;;25.80;58.00;;;;;;5034378;28;20029;-47
2021/08/18 09:12:22;;;;;;;10.13;2.08;;;;;;;;;;5015541;28;20377;-49
2021/08/18 09:14:47;;;;;;;2.40;1.77;;;26.30;57.00;;;;;;5033858;28;20033;-48
2021/08/18 09:17:29;;;;;;;2.70;1.45;;;26.20;56.60;;;;;;5031674;28;20457;-49
2021/08/18 09:20:07;;;;;;;6.97;1.95;;;26.10;54.90;;;;;;5033065;28;20515;-47
2021/08/18 09:22:35;;;;;;;2.60;1.70;;;;;;;;;;5008273;28;20092;-48
2021/08/18 09:25:12;;;;;;;6.53;1.98;;;26.70;54.20;;;;;;5033533;28;20053;-49
2021/08/18 09:27:39;;;;;;;3.65;1.58;;;26.30;55.60;;;;;;5034381;28;20489;-49
2021/08/18 09:30:06;;;;;;;3.22;1.90;;;26.20;56.40;;;;;;5033375;28;20033;-49
2021/08/18 09:32:36;;;;;;;10.55;2.05;;;26.50;55.70;;;;;;4983660;28;20048;-47
2021/08/18 09:35:13;;;;;;;2.88;1.63;;;27.10;56.00;;;;;;5015183;28;20048;-49
2021/08/18 09:37:45;;;;;;;4.28;1.98;;;27.60;54.30;;;;;;5027011;28;20069;-50
2021/08/18 09:40:17;;;;;;;2.78;1.58;;;27.50;53.10;;;;;;5034237;28;20112;-49
2021/08/18 09:42:43;;;;;;;3.80;1.42;;;27.60;51.40;;;;;;5025621;28;20069;-48
2021/08/18 09:45:17;;;;;;;1.95;1.40;;;27.20;50.30;;;;;;5029523;28;20118;-49
2021/08/18 09:48:04;;;;;;;5.38;1.33;;;27.00;51.20;;;;;;5033125;28;20032;-48
2021/08/18 09:50:32;;;;;;;4.22;1.98;;;;;;;;;;5030276;28;20041;-49
2021/08/18 09:53:06;;;;;;;2.50;1.50;;;;;;;;;;5033289;28;21061;-48
2021/08/18 09:55:32;;;;;;;20.10;3.20;;;;;;;;;;5033374;28;20159;-48
2021/08/18 09:57:58;;;;;;;3.53;1.75;;;;;;;;;;5014042;28;20141;-49
2021/08/18 10:00:24;;;;;;;2.53;1.35;;;;;;;;;;5008949;28;20057;-50
2021/08/18 10:02:51;;;;;;;5.07;2.10;;;28.30;49.20;;;;;;5032359;28;20045;-47
2021/08/18 10:05:17;;;;;;;3.35;2.03;;;28.40;50.00;;;;;;5030951;28;20033;-49
2021/08/18 10:07:44;;;;;;;2.25;1.70;;;28.60;51.00;;;;;;5029463;28;20433;-48
2021/08/18 10:10:11;;;;;;;3.88;1.67;;;28.20;50.20;;;;;;5026608;28;20087;-47
2021/08/18 10:12:36;;;;;;;2.80;1.50;;;28.00;49.30;;;;;;5032830;28;20404;-50
2021/08/18 10:15:06;;;;;;;2.60;1.60;;;27.60;50.30;;;;;;5032654;28;20045;-49
2021/08/18 10:17:39;;;;;;;3.05;1.50;;;26.80;50.10;;;;;;5014205;28;20551;-47
2021/08/18 10:20:07;;;;;;;2.47;1.45;;;26.60;50.60;;;;;;5030836;28;20393;-48
2021/08/18 10:22:34;;;;;;;2.65;1.50;;;26.10;50.90;;;;;;5033130;28;20044;-49
2021/08/18 10:25:33;;;;;;;5.65;1.60;;;26.10;51.30;;;;;;5032492;28;20032;-49
2021/08/18 10:27:59;;;;;;;7.90;1.90;;;26.30;51.60;;;;;;5030390;28;20042;-49
2021/08/18 10:30:26;;;;;;;3.65;1.30;;;26.60;51.10;;;;;;5029954;28;20037;-47
2021/08/18 10:32:53;;;;;;;4.35;1.92;;;26.80;51.30;;;;;;5013070;28;20037;-49
2021/08/18 10:35:37;;;;;;;4.57;1.52;;;27.20;51.30;;;;;;5031835;28;20064;-48
2021/08/18 10:38:24;;;;;;;2.92;1.80;;;27.30;51.30;;;;;;5030330;28;20026;-48
2021/08/18 10:40:51;;;;;;;5.20;1.40;;;28.00;51.90;;;;;;5013567;28;20107;-54
2021/08/18 10:43:51;;;;;;;3.92;1.90;;;28.00;50.60;;;;;;5006490;28;20400;-51
2021/08/18 10:46:17;;;;;;;2.90;1.30;;;28.10;51.00;;;;;;5006715;28;20034;-52
2021/08/18 10:48:54;;;;;;;2.40;1.45;;;28.10;51.10;;;;;;4995283;28;20030;-52
2021/08/18 10:51:39;;;;;;;3.03;1.52;;;28.10;50.40;;;;;;4999004;28;20058;-52
2021/08/18 10:54:32;;;;;;;5.85;2.58;;;28.40;51.00;;;;;;5004919;28;20064;-49
2021/08/18 10:57:00;;;;;;;7.40;1.90;;;28.80;52.30;;;;;;5004935;28;20054;-49
2021/08/18 10:59:47;;;;;;;5.03;1.48;;;28.80;51.50;;;;;;5002480;28;20038;-50
2021/08/18 11:02:52;;;;;;;6.93;1.63;;;29.20;76.40;;;;;;5002511;28;20065;-49
2021/08/18 11:05:42;;;;;;;1.83;1.20;;;29.10;52.20;;;;;;5008904;28;20022;-49
2021/08/18 11:08:15;;;;;;;3.38;1.55;;;29.70;50.30;;;;;;4988140;28;20046;-49
2021/08/18 11:11:03;;;;;;;3.33;1.60;;;29.40;50.00;;;;;;4987654;28;20049;-49
2021/08/18 11:13:56;;;;;;;4.40;1.73;;;28.90;49.90;;;;;;4980713;28;20150;-49
2021/08/18 11:16:30;;;;;;;4.70;1.65;;;29.00;50.20;;;;;;4984407;28;20117;-49
2021/08/18 11:18:56;;;;;;;3.00;1.30;;;;;;;;;;4983701;28;20048;-49
2021/08/18 11:21:28;;;;;;;2.83;1.90;;;28.60;82.20;;;;;;4984052;28;20022;-49
2021/08/18 11:24:01;;;;;;;2.60;1.67;;;28.40;54.50;;;;;;4984624;28;20125;-50
2021/08/18 11:26:30;;;;;;;3.40;1.50;;;28.00;50.80;;;;;;4985013;28;20108;-49
2021/08/18 11:28:58;;;;;;;4.15;1.60;;;27.80;50.30;;;;;;4985215;28;20042;-49
2021/08/18 11:31:53;;;;;;;5.28;1.60;;;28.20;51.10;;;;;;4969913;28;20038;-49
2021/08/18 11:34:31;;;;;;;4.85;1.80;;;28.80;50.40;;;;;;4985398;28;20078;-50
2021/08/18 11:37:03;;;;;;;2.80;1.50;;;28.60;50.10;;;;;;4984819;28;20450;-50
2021/08/18 11:39:37;;;;;;;7.57;1.90;;;28.40;51.30;;;;;;4986214;28;20597;-50
2021/08/18 11:42:09;;;;;;;2.85;1.50;;;28.70;50.60;;;;;;4988235;28;20129;-49
2021/08/18 11:44:38;;;;;;;2.13;1.58;;;28.40;49.70;;;;;;4977659;28;20034;-49
2021/08/18 11:47:10;;;;;;;3.65;1.90;;;27.80;50.60;;;;;;5027396;28;20050;-50
2021/08/18 11:49:37;;;;;;;11.32;2.03;;;27.70;50.00;;;;;;5011090;28;20025;-50
2021/08/18 11:52:04;;;;;;;2.35;1.38;;;27.50;52.90;;;;;;5011580;28;20057;-50
2021/08/18 11:54:31;;;;;;;5.65;1.95;;;27.60;51.40;;;;;;5009441;28;20092;-49
2021/08/18 11:57:05;;;;;;;4.82;1.88;;;27.70;51.00;;;;;;5026642;28;20053;-50
2021/08/18 11:59:31;;;;;;;2.05;1.63;;;28.20;51.90;;;;;;5010137;28;20041;-49
2021/08/18 12:01:58;;;;;;;3.75;2.00;;;29.00;50.90;;;;;;5028587;28;20050;-49
2021/08/18 12:04:24;;;;;;;5.38;1.80;;;;;;;;;;5011589;28;20381;-49
2021/08/18 12:07:07;;;;;;;7.28;1.83;;;29.60;50.10;;;;;;5006658;28;20076;-50
2021/08/18 12:09:33;;;;;;;5.78;2.00;;;29.70;49.60;;;;;;5012971;28;20040;-49
2021/08/18 12:12:14;;;;;;;3.97;1.95;;;30.30;50.80;;;;;;5010272;28;20034;-50
2021/08/18 12:14:49;;;;;;;3.10;1.88;;;30.50;49.30;;;;;;5005283;28;20421;-51
2021/08/18 12:17:16;;;;;;;3.45;1.70;;;30.50;48.60;;;;;;5006049;28;20131;-49
2021/08/18 12:19:46;;;;;;;4.82;1.77;;;30.60;50.70;;;;;;5003335;28;20050;-51
2021/08/18 12:22:15;;;;;;;4.10;1.70;;;30.30;49.00;;;;;;5006130;28;20049;-48
2021/08/18 12:24:47;;;;;;;5.32;1.90;;;29.90;48.60;;;;;;5023572;28;20042;-49
2021/08/18 12:27:16;;;;;;;5.63;2.00;;;30.10;49.70;;;;;;5010450;28;20049;-48
2021/08/18 12:29:44;;;;;;;5.28;2.05;;;29.80;50.40;;;;;;5013358;28;20370;-49
2021/08/18 12:32:12;;;;;;;6.38;1.70;;;29.70;50.90;;;;;;5006379;28;20112;-47
2021/08/18 12:34:40;;;;;;;5.55;1.80;;;29.60;51.10;;;;;;5006133;28;20128;-48
2021/08/18 12:37:12;;;;;;;4.88;1.80;;;29.80;50.10;;;;;;5010725;28;20029;-47
2021/08/18 12:39:44;;;;;;;;;;;30.10;49.00;;;;;;5009275;28;20045;-47
2021/08/18 12:42:20;;;;;;;4.15;1.60;;;30.10;49.00;;;;;;5010781;28;19979;-48
2021/08/18 12:44:46;;;;;;;3.88;2.03;;;30.40;48.60;;;;;;5013404;28;20061;-49
2021/08/18 12:47:14;;;;;;;8.80;2.60;;;30.40;49.50;;;;;;5007171;28;20448;-47
2021/08/18 12:49:48;;;;;;;11.57;2.00;;;30.20;48.70;;;;;;5012139;28;20488;-48
2021/08/18 12:52:16;;;;;;;6.97;2.90;;;30.60;49.10;;;;;;5010379;28;20481;-47
2021/08/18 12:54:42;;;;;;;2.70;1.70;;;30.80;48.90;;;;;;5011723;28;20030;-47
2021/08/18 12:57:08;;;;;;;5.45;1.90;;;30.80;47.60;;;;;;5010341;28;20037;-48